Observation data for Andrews on 07/03/2020      Previous  Date  Next       Current Mesonet Observations  Soil Data  Daily Summary Page  Observations in Plain Language
KANS 030500Z 15007KT 27/14 A3004 RMK A01 T02680136  RH  046%=      5-min Rain = 0
KANS 030505Z 16008KT 27/14 A3004 RMK A01 T02690136  RH  046%=      5-min Rain = 0
KANS 030510Z 16008KT 27/14 A3004 RMK A01 T02700137  RH  046%=      5-min Rain = 0
KANS 030515Z 16008KT 27/14 A3004 RMK A01 T02700137  RH  046%=      5-min Rain = 0
KANS 030520Z 16008KT 27/14 A3004 RMK A01 T02700138  RH  046%=      5-min Rain = 0
KANS 030525Z 16009KT 27/14 A3004 RMK A01 T02700140  RH  047%=      5-min Rain = 0
KANS 030530Z 16008KT 27/14 A3004 RMK A01 T02710141  RH  047%=      5-min Rain = 0
KANS 030535Z 16008KT 27/14 A3005 RMK A01 T02710142  RH  047%=      5-min Rain = 0
KANS 030540Z 16007KT 27/14 A3005 RMK A01 T02710144  RH  048%=      5-min Rain = 0
KANS 030545Z 16007KT 27/15 A3005 RMK A01 T02700146  RH  049%=      5-min Rain = 0
KANS 030550Z 16008KT 27/15 A3005 RMK A01 T02710147  RH  049%=      5-min Rain = 0
KANS 030555Z 15007KT 27/15 A3005 RMK A01 T02720149  RH  049%=      5-min Rain = 0
KANS 030600Z 15008KT 27/15 A3005 RMK A01 T02710150  RH  050%=      5-min Rain = 0
KANS 030605Z 16009KT 27/15 A3005 RMK A01 T02720151  RH  050%=      5-min Rain = 0
KANS 030610Z 16007G12KT 27/15 A3005 RMK A01 T02720152  RH  050%=      5-min Rain = 0
KANS 030615Z 15007KT 27/15 A3005 RMK A01 T02720152  RH  050%=      5-min Rain = 0
KANS 030620Z 15008KT 27/15 A3005 RMK A01 T02710152  RH  050%=      5-min Rain = 0
KANS 030625Z 15007KT 27/15 A3005 RMK A01 T02710152  RH  050%=      5-min Rain = 0
KANS 030630Z 15006KT 27/15 A3005 RMK A01 T02700153  RH  051%=      5-min Rain = 0
KANS 030635Z 15007KT 27/15 A3005 RMK A01 T02680153  RH  052%=      5-min Rain = 0
KANS 030640Z 15006KT 27/15 A3005 RMK A01 T02680153  RH  052%=      5-min Rain = 0
KANS 030645Z 15005KT 27/15 A3005 RMK A01 T02670154  RH  052%=      5-min Rain = 0
KANS 030650Z 15005KT 27/15 A3005 RMK A01 T02660154  RH  052%=      5-min Rain = 0
KANS 030655Z 16005KT 27/15 A3005 RMK A01 T02660154  RH  052%=      5-min Rain = 0
KANS 030700Z 16005KT 27/15 A3005 RMK A01 T02660154  RH  052%=      5-min Rain = 0
KANS 030705Z 17005KT 27/15 A3005 RMK A01 T02660154  RH  052%=      5-min Rain = 0
KANS 030710Z 17005KT 27/15 A3004 RMK A01 T02650154  RH  053%=      5-min Rain = 0
KANS 030715Z 17005KT 26/15 A3004 RMK A01 T02640154  RH  053%=      5-min Rain = 0
KANS 030720Z 16004KT 26/15 A3004 RMK A01 T02610154  RH  054%=      5-min Rain = 0
KANS 030725Z 15003KT 26/16 A3004 RMK A01 T02580155  RH  055%=      5-min Rain = 0
KANS 030730Z 15003KT 26/16 A3004 RMK A01 T02550155  RH  056%=      5-min Rain = 0
KANS 030735Z 14002KT 25/15 A3004 RMK A01 T02520154  RH  057%=      5-min Rain = 0
KANS 030740Z 11001KT 25/15 A3004 RMK A01 T02500154  RH  058%=      5-min Rain = 0
KANS 030745Z 09001KT 25/16 A3004 RMK A01 T02480155  RH  059%=      5-min Rain = 0
KANS 030750Z 14001KT 25/15 A3004 RMK A01 T02450154  RH  060%=      5-min Rain = 0
KANS 030755Z 15002KT 24/15 A3004 RMK A01 T02380151  RH  061%=      5-min Rain = 0
KANS 030800Z 15002KT 24/15 A3004 RMK A01 T02350150  RH  062%=      5-min Rain = 0
KANS 030805Z 14002KT 23/15 A3004 RMK A01 T02340154  RH  063%=      5-min Rain = 0
KANS 030810Z 13002KT 24/15 A3004 RMK A01 T02350153  RH  063%=      5-min Rain = 0
KANS 030815Z 13002KT 23/15 A3004 RMK A01 T02340152  RH  063%=      5-min Rain = 0
KANS 030820Z 13002KT 23/15 A3004 RMK A01 T02320153  RH  064%=      5-min Rain = 0
KANS 030825Z 15002KT 23/16 A3004 RMK A01 T02310156  RH  066%=      5-min Rain = 0
KANS 030830Z 15002KT 23/15 A3004 RMK A01 T02300153  RH  065%=      5-min Rain = 0
KANS 030835Z 15001KT 23/16 A3004 RMK A01 T02280155  RH  066%=      5-min Rain = 0
KANS 030840Z 15000KT 23/15 A3003 RMK A01 T02280151  RH  065%=      5-min Rain = 0
KANS 030845Z 15001KT 23/15 A3003 RMK A01 T02270150  RH  065%=      5-min Rain = 0
KANS 030850Z 15002KT 23/15 A3003 RMK A01 T02260148  RH  064%=      5-min Rain = 0
KANS 030855Z 15002KT 22/15 A3003 RMK A01 T02230148  RH  065%=      5-min Rain = 0
KANS 030900Z 15002KT 22/15 A3002 RMK A01 T02200148  RH  066%=      5-min Rain = 0
KANS 030905Z 15001KT 22/15 A3002 RMK A01 T02190151  RH  068%=      5-min Rain = 0
KANS 030910Z 15001KT 22/15 A3002 RMK A01 T02200151  RH  068%=      5-min Rain = 0
KANS 030915Z 15001KT 22/15 A3002 RMK A01 T02210149  RH  066%=      5-min Rain = 0
KANS 030920Z 14003KT 22/15 A3003 RMK A01 T02200148  RH  066%=      5-min Rain = 0
KANS 030925Z 13005KT 22/15 A3003 RMK A01 T02170149  RH  068%=      5-min Rain = 0
KANS 030930Z 12006KT 22/16 A3003 RMK A01 T02160156  RH  072%=      5-min Rain = 0
KANS 030935Z 11006KT 22/16 A3003 RMK A01 T02210162  RH  073%=      5-min Rain = 0
KANS 030940Z 12005KT 23/16 A3003 RMK A01 T02250163  RH  072%=      5-min Rain = 0
KANS 030945Z 13004KT 23/16 A3003 RMK A01 T02280164  RH  070%=      5-min Rain = 0
KANS 030950Z 14004KT 23/17 A3003 RMK A01 T02290165  RH  071%=      5-min Rain = 0
KANS 030955Z 14004KT 23/16 A3003 RMK A01 T02270163  RH  071%=      5-min Rain = 0
KANS 031000Z 16004KT 23/16 A3002 RMK A01 T02250163  RH  071%=      5-min Rain = 0
KANS 031005Z 16005KT 22/16 A3002 RMK A01 T02240160  RH  071%=      5-min Rain = 0
KANS 031010Z 15005KT 23/16 A3003 RMK A01 T02250159  RH  069%=      5-min Rain = 0
KANS 031015Z 12005KT 22/16 A3003 RMK A01 T02240160  RH  070%=      5-min Rain = 0
KANS 031020Z 11006KT 23/16 A3004 RMK A01 T02260160  RH  070%=      5-min Rain = 0
KANS 031025Z 11005KT 23/16 A3004 RMK A01 T02260164  RH  071%=      5-min Rain = 0
KANS 031030Z 13004KT 23/17 A3003 RMK A01 T02250167  RH  074%=      5-min Rain = 0
KANS 031035Z 14004KT 22/17 A3003 RMK A01 T02220168  RH  075%=      5-min Rain = 0
KANS 031040Z 16004KT 22/17 A3003 RMK A01 T02210166  RH  075%=      5-min Rain = 0
KANS 031045Z 13005KT 22/17 A3003 RMK A01 T02200165  RH  074%=      5-min Rain = 0
KANS 031050Z 11005KT 22/16 A3004 RMK A01 T02210163  RH  073%=      5-min Rain = 0
KANS 031055Z 10005KT 22/16 A3004 RMK A01 T02230163  RH  072%=      5-min Rain = 0
KANS 031100Z 11005KT 23/16 A3004 RMK A01 T02250162  RH  071%=      5-min Rain = 0
KANS 031105Z 11005KT 23/16 A3005 RMK A01 T02250161  RH  070%=      5-min Rain = 0
KANS 031110Z 10006KT 23/16 A3005 RMK A01 T02260161  RH  070%=      5-min Rain = 0
KANS 031115Z 10005KT 23/16 A3006 RMK A01 T02260159  RH  069%=      5-min Rain = 0
KANS 031120Z 11004KT 23/16 A3006 RMK A01 T02260158  RH  068%=      5-min Rain = 0
KANS 031125Z 10005KT 23/16 A3006 RMK A01 T02260157  RH  068%=      5-min Rain = 0
KANS 031130Z 09005KT 23/16 A3007 RMK A01 T02260156  RH  068%=      5-min Rain = 0
KANS 031135Z 10004KT 23/16 A3007 RMK A01 T02260157  RH  068%=      5-min Rain = 0
KANS 031140Z 11004KT 23/16 A3006 RMK A01 T02260157  RH  068%=      5-min Rain = 0
KANS 031145Z 10005KT 23/16 A3007 RMK A01 T02260157  RH  068%=      5-min Rain = 0
KANS 031150Z 10004KT 23/16 A3007 RMK A01 T02260158  RH  069%=      5-min Rain = 0
KANS 031155Z 11003KT 23/16 A3007 RMK A01 T02250158  RH  069%=      5-min Rain = 0
KANS 031200Z 11004KT 23/16 A3007 RMK A01 T02250158  RH  069%=      5-min Rain = 0
KANS 031205Z 10003KT 23/16 A3007 RMK A01 T02250159  RH  069%=      5-min Rain = 0
KANS 031210Z 10003KT 23/16 A3007 RMK A01 T02250158  RH  069%=      5-min Rain = 0
KANS 031215Z 09002KT 23/16 A3007 RMK A01 T02250158  RH  069%=      5-min Rain = 0
KANS 031220Z 08002KT 23/16 A3008 RMK A01 T02260159  RH  069%=      5-min Rain = 0
KANS 031225Z 08003KT 23/16 A3008 RMK A01 T02280160  RH  069%=      5-min Rain = 0
KANS 031230Z 09003KT 23/16 A3008 RMK A01 T02300161  RH  068%=      5-min Rain = 0
KANS 031235Z 10003KT 23/16 A3008 RMK A01 T02310161  RH  068%=      5-min Rain = 0
KANS 031240Z 11002KT 23/16 A3008 RMK A01 T02340161  RH  067%=      5-min Rain = 0
KANS 031245Z 11003KT 24/16 A3008 RMK A01 T02370162  RH  066%=      5-min Rain = 0
KANS 031250Z 13004KT 24/16 A3008 RMK A01 T02390162  RH  065%=      5-min Rain = 0
KANS 031255Z 13004KT 24/16 A3007 RMK A01 T02400164  RH  065%=      5-min Rain = 0
KANS 031300Z 12005KT 24/16 A3007 RMK A01 T02420164  RH  065%=      5-min Rain = 0
KANS 031305Z 12005KT 24/17 A3007 RMK A01 T02440165  RH  064%=      5-min Rain = 0
KANS 031310Z 12006KT 25/17 A3007 RMK A01 T02460165  RH  064%=      5-min Rain = 0
KANS 031315Z 12006KT 25/17 A3007 RMK A01 T02480166  RH  063%=      5-min Rain = 0
KANS 031320Z 12007KT 25/17 A3007 RMK A01 T02490165  RH  063%=      5-min Rain = 0
KANS 031325Z 12007KT 25/17 A3008 RMK A01 T02500165  RH  062%=      5-min Rain = 0
KANS 031330Z 12006KT 25/17 A3008 RMK A01 T02530167  RH  062%=      5-min Rain = 0
KANS 031335Z 13008KT 26/17 A3008 RMK A01 T02570166  RH  060%=      5-min Rain = 0
KANS 031340Z 13008KT 26/16 A3008 RMK A01 T02570164  RH  059%=      5-min Rain = 0
KANS 031345Z 13009KT 26/16 A3008 RMK A01 T02590164  RH  059%=      5-min Rain = 0
KANS 031350Z 14009KT 26/17 A3009 RMK A01 T02600165  RH  058%=      5-min Rain = 0
KANS 031355Z 15010KT 26/17 A3009 RMK A01 T02620165  RH  058%=      5-min Rain = 0
KANS 031400Z 15009G14KT 26/17 A3008 RMK A01 T02630166  RH  058%=      5-min Rain = 0
KANS 031405Z 14011KT 26/17 A3009 RMK A01 T02640166  RH  058%=      5-min Rain = 0
KANS 031410Z 16011G16KT 27/17 A3008 RMK A01 T02650167  RH  058%=      5-min Rain = 0
KANS 031415Z 15010G17KT 27/17 A3008 RMK A01 T02660168  RH  058%=      5-min Rain = 0
KANS 031420Z 15012KT 27/17 A3008 RMK A01 T02680169  RH  057%=      5-min Rain = 0
KANS 031425Z 15011G16KT 27/17 A3009 RMK A01 T02690170  RH  057%=      5-min Rain = 0
KANS 031430Z 14011G16KT 27/17 A3009 RMK A01 T02700170  RH  057%=      5-min Rain = 0
KANS 031435Z 15009G14KT 27/17 A3009 RMK A01 T02740172  RH  057%=      5-min Rain = 0
KANS 031440Z 15010KT 27/17 A3009 RMK A01 T02740171  RH  056%=      5-min Rain = 0
KANS 031445Z 15010KT 28/17 A3009 RMK A01 T02760172  RH  056%=      5-min Rain = 0
KANS 031450Z 15010KT 28/17 A3009 RMK A01 T02760172  RH  056%=      5-min Rain = 0
KANS 031455Z 16011G17KT 28/17 A301 RMK A01 T02770172  RH  055%=      5-min Rain = 0
KANS 031500Z 15011KT 28/17 A301 RMK A01 T02750172  RH  056%=      5-min Rain = 0
KANS 031505Z 15010KT 28/17 A301 RMK A01 T02790174  RH  055%=      5-min Rain = 0
KANS 031510Z 14007KT 28/18 A301 RMK A01 T02840175  RH  055%=      5-min Rain = 0
KANS 031515Z 15010G16KT 29/18 A301 RMK A01 T02870176  RH  054%=      5-min Rain = 0
KANS 031520Z 14010G15KT 29/18 A301 RMK A01 T02850176  RH  054%=      5-min Rain = 0
KANS 031525Z 15011G16KT 29/18 A3009 RMK A01 T02850177  RH  055%=      5-min Rain = 0
KANS 031530Z 16008G13KT 29/18 A3009 RMK A01 T02870178  RH  055%=      5-min Rain = 0
KANS 031535Z 17009G14KT 29/18 A3009 RMK A01 T02900179  RH  054%=      5-min Rain = 0
KANS 031540Z 15010KT 29/18 A301 RMK A01 T02910181  RH  054%=      5-min Rain = 0
KANS 031545Z 16011G17KT 29/18 A3009 RMK A01 T02910180  RH  054%=      5-min Rain = 0
KANS 031550Z 15009KT 30/18 A3009 RMK A01 T02950181  RH  053%=      5-min Rain = 0
KANS 031555Z 15008KT 30/18 A3009 RMK A01 T02980182  RH  053%=      5-min Rain = 0
KANS 031600Z 16009KT 30/18 A3009 RMK A01 T02980182  RH  052%=      5-min Rain = 0
KANS 031605Z 14010G16KT 30/18 A3009 RMK A01 T02990182  RH  052%=      5-min Rain = 0
KANS 031610Z 14008KT 30/18 A3009 RMK A01 T03020182  RH  051%=      5-min Rain = 0
KANS 031615Z 15007KT 30/18 A3009 RMK A01 T03030180  RH  050%=      5-min Rain = 0
KANS 031620Z 18009KT 30/18 A3009 RMK A01 T03010179  RH  050%=      5-min Rain = 0
KANS 031625Z 14008KT 30/18 A3009 RMK A01 T03020180  RH  051%=      5-min Rain = 0
KANS 031630Z 15007G12KT 31/18 A301 RMK A01 T03050180  RH  050%=      5-min Rain = 0
KANS 031635Z 12008KT 31/18 A301 RMK A01 T03070178  RH  049%=      5-min Rain = 0
KANS 031640Z 13008G13KT 31/18 A301 RMK A01 T03110180  RH  048%=      5-min Rain = 0
KANS 031645Z 14007G13KT 31/18 A301 RMK A01 T03140177  RH  046%=      5-min Rain = 0
KANS 031650Z 13006G11KT 31/18 A301 RMK A01 T03110175  RH  047%=      5-min Rain = 0
KANS 031655Z 13007G12KT 32/18 A301 RMK A01 T03170178  RH  046%=      5-min Rain = 0
KANS 031700Z 11007KT 32/18 A3009 RMK A01 T03190176  RH  045%=      5-min Rain = 0
KANS 031705Z 14009KT 32/18 A3009 RMK A01 T03190175  RH  044%=      5-min Rain = 0
KANS 031710Z 12009KT 32/17 A3009 RMK A01 T03210173  RH  044%=      5-min Rain = 0
KANS 031715Z 14007G13KT 32/17 A3009 RMK A01 T03220172  RH  043%=      5-min Rain = 0
KANS 031720Z 14006KT 32/17 A3009 RMK A01 T03210174  RH  044%=      5-min Rain = 0
KANS 031725Z 13009KT 33/17 A3009 RMK A01 T03280173  RH  042%=      5-min Rain = 0
KANS 031730Z 12006G13KT 32/17 A3009 RMK A01 T03230172  RH  043%=      5-min Rain = 0
KANS 031735Z 13009G14KT 33/17 A3009 RMK A01 T03300167  RH  040%=      5-min Rain = 0
KANS 031740Z 13008G13KT 33/17 A3009 RMK A01 T03290166  RH  040%=      5-min Rain = 0
KANS 031745Z 14009G15KT 33/17 A3009 RMK A01 T03290169  RH  040%=      5-min Rain = 0
KANS 031750Z 12009G15KT 33/17 A3009 RMK A01 T03300167  RH  040%=      5-min Rain = 0
KANS 031755Z 12007G18KT 33/17 A3009 RMK A01 T03280168  RH  040%=      5-min Rain = 0
KANS 031800Z 15008G13KT 33/17 A3009 RMK A01 T03330169  RH  039%=      5-min Rain = 0
KANS 031805Z 18005G10KT 33/17 A3009 RMK A01 T03310165  RH  039%=      5-min Rain = 0
KANS 031810Z 13009G14KT 33/17 A3009 RMK A01 T03340165  RH  038%=      5-min Rain = 0
KANS 031815Z 12007G12KT 33/16 A3008 RMK A01 T03310164  RH  039%=      5-min Rain = 0
KANS 031820Z 14006G12KT 33/16 A3008 RMK A01 T03340161  RH  037%=      5-min Rain = 0
KANS 031825Z 12011G18KT 34/16 A3008 RMK A01 T03360159  RH  036%=      5-min Rain = 0
KANS 031830Z 11007G12KT 34/16 A3008 RMK A01 T03390157  RH  035%=      5-min Rain = 0
KANS 031835Z 12007G12KT 33/16 A3008 RMK A01 T03340157  RH  036%=      5-min Rain = 0
KANS 031840Z 15010G17KT 34/16 A3007 RMK A01 T03430159  RH  035%=      5-min Rain = 0
KANS 031845Z 15007G16KT 34/16 A3007 RMK A01 T03380157  RH  036%=      5-min Rain = 0
KANS 031850Z 12011G17KT 34/16 A3007 RMK A01 T03440158  RH  035%=      5-min Rain = 0
KANS 031855Z 10008G18KT 34/16 A3007 RMK A01 T03440157  RH  034%=      5-min Rain = 0
KANS 031900Z 12011G17KT 35/15 A3007 RMK A01 T03470154  RH  033%=      5-min Rain = 0
KANS 031905Z 09008G16KT 35/15 A3006 RMK A01 T03480151  RH  032%=      5-min Rain = 0
KANS 031910Z 12010G17KT 34/15 A3006 RMK A01 T03440153  RH  033%=      5-min Rain = 0
KANS 031915Z 15010G16KT 35/15 A3006 RMK A01 T03510154  RH  032%=      5-min Rain = 0
KANS 031920Z 13009G17KT 35/15 A3006 RMK A01 T03480151  RH  032%=      5-min Rain = 0
KANS 031925Z 11007G14KT 35/15 A3006 RMK A01 T03470150  RH  032%=      5-min Rain = 0
KANS 031930Z 13010G17KT 35/15 A3005 RMK A01 T03470150  RH  032%=      5-min Rain = 0
KANS 031935Z 13009G16KT 35/15 A3005 RMK A01 T03520148  RH  031%=      5-min Rain = 0
KANS 031940Z 12007KT 35/14 A3005 RMK A01 T03530141  RH  029%=      5-min Rain = 0
KANS 031945Z 11008G13KT 35/14 A3005 RMK A01 T03540140  RH  029%=      5-min Rain = 0
KANS 031950Z 11011G17KT 35/14 A3004 RMK A01 T03510141  RH  030%=      5-min Rain = 0
KANS 031955Z 12010G17KT 35/14 A3004 RMK A01 T03540142  RH  029%=      5-min Rain = 0
KANS 032000Z 12008G13KT 36/14 A3004 RMK A01 T03580138  RH  028%=      5-min Rain = 0
KANS 032005Z 13011G17KT 36/14 A3004 RMK A01 T03580136  RH  027%=      5-min Rain = 0
KANS 032010Z 11008G16KT 36/13 A3004 RMK A01 T03550133  RH  027%=      5-min Rain = 0
KANS 032015Z 09010G15KT 35/13 A3004 RMK A01 T03540133  RH  028%=      5-min Rain = 0
KANS 032020Z 09009KT 36/13 A3004 RMK A01 T03550134  RH  028%=      5-min Rain = 0
KANS 032025Z 11011G16KT 36/13 A3004 RMK A01 T03600131  RH  026%=      5-min Rain = 0
KANS 032030Z 12010G15KT 36/14 A3004 RMK A01 T03610135  RH  027%=      5-min Rain = 0
KANS 032035Z 11008G15KT 37/14 A3003 RMK A01 T03650136  RH  027%=      5-min Rain = 0
KANS 032040Z 12006KT 36/14 A3003 RMK A01 T03600135  RH  027%=      5-min Rain = 0
KANS 032045Z 14009G15KT 36/13 A3003 RMK A01 T03620129  RH  026%=      5-min Rain = 0
KANS 032050Z 15009G14KT 36/13 A3003 RMK A01 T03630133  RH  026%=      5-min Rain = 0
KANS 032055Z 12011G18KT 37/14 A3003 RMK A01 T03670138  RH  027%=      5-min Rain = 0
KANS 032100Z 11010G16KT 36/13 A3003 RMK A01 T03620134  RH  027%=      5-min Rain = 0
KANS 032105Z 12009G15KT 36/13 A3003 RMK A01 T03600131  RH  026%=      5-min Rain = 0
KANS 032110Z 12007KT 37/13 A3002 RMK A01 T03650127  RH  025%=      5-min Rain = 0
KANS 032115Z 14009G15KT 37/13 A3002 RMK A01 T03650130  RH  025%=      5-min Rain = 0
KANS 032120Z 12010G15KT 37/13 A3002 RMK A01 T03690132  RH  025%=      5-min Rain = 0
KANS 032125Z 12009KT 36/13 A3002 RMK A01 T03640131  RH  026%=      5-min Rain = 0
KANS 032130Z 11008G16KT 36/13 A3002 RMK A01 T03640130  RH  026%=      5-min Rain = 0
KANS 032135Z 11010G17KT 37/13 A3002 RMK A01 T03670130  RH  025%=      5-min Rain = 0
KANS 032140Z 14010G18KT 37/13 A3002 RMK A01 T03680129  RH  025%=      5-min Rain = 0
KANS 032145Z 13007G12KT 37/13 A3002 RMK A01 T03690126  RH  024%=      5-min Rain = 0
KANS 032150Z 09009G14KT 37/13 A3002 RMK A01 T03670125  RH  024%=      5-min Rain = 0
KANS 032155Z 08009G14KT 37/13 A3001 RMK A01 T03690126  RH  024%=      5-min Rain = 0
KANS 032200Z 12010G15KT 37/13 A3001 RMK A01 T03700127  RH  024%=      5-min Rain = 0
KANS 032205Z 15010KT 37/13 A3001 RMK A01 T03670127  RH  025%=      5-min Rain = 0
KANS 032210Z 14006G12KT 37/13 A3001 RMK A01 T03690126  RH  024%=      5-min Rain = 0
KANS 032215Z 11010KT 37/13 A3001 RMK A01 T03690126  RH  024%=      5-min Rain = 0
KANS 032220Z 11009KT 37/13 A30 RMK A01 T03690127  RH  024%=      5-min Rain = 0
KANS 032225Z 09007KT 36/12 A30 RMK A01 T03630123  RH  025%=      5-min Rain = 0
KANS 032230Z 11008G13KT 37/12 A30 RMK A01 T03650123  RH  024%=      5-min Rain = 0
KANS 032235Z 12008G14KT 36/12 A30 RMK A01 T03630122  RH  024%=      5-min Rain = 0
KANS 032240Z 10005G10KT 36/12 A30 RMK A01 T03640121  RH  024%=      5-min Rain = 0
KANS 032245Z 11010G17KT 37/13 A30 RMK A01 T03670125  RH  024%=      5-min Rain = 0
KANS 032250Z 15007G13KT 37/13 A30 RMK A01 T03660127  RH  025%=      5-min Rain = 0
KANS 032255Z 14006KT 36/13 A2999 RMK A01 T03610126  RH  025%=      5-min Rain = 0
KANS 032300Z 13006G11KT 36/13 A2999 RMK A01 T03630125  RH  025%=      5-min Rain = 0
KANS 032305Z 13010G16KT 36/12 A2999 RMK A01 T03640124  RH  025%=      5-min Rain = 0
KANS 032310Z 10008KT 37/12 A2999 RMK A01 T03650121  RH  024%=      5-min Rain = 0
KANS 032315Z 10007G15KT 37/12 A2999 RMK A01 T03680121  RH  024%=      5-min Rain = 0
KANS 032320Z 12010G16KT 37/12 A2999 RMK A01 T03690123  RH  024%=      5-min Rain = 0
KANS 032325Z 14010KT 37/12 A2999 RMK A01 T03660120  RH  024%=      5-min Rain = 0
KANS 032330Z 14008G15KT 36/12 A2998 RMK A01 T03630122  RH  024%=      5-min Rain = 0
KANS 032335Z 12010G15KT 37/12 A2998 RMK A01 T03650122  RH  024%=      5-min Rain = 0
KANS 032340Z 10007G14KT 37/12 A2998 RMK A01 T03650119  RH  024%=      5-min Rain = 0
KANS 032345Z 12009G14KT 36/12 A2998 RMK A01 T03620121  RH  024%=      5-min Rain = 0
KANS 032350Z 10008G14KT 36/12 A2998 RMK A01 T03570122  RH  025%=      5-min Rain = 0
KANS 032355Z 11008KT 36/12 A2998 RMK A01 T03590119  RH  024%=      5-min Rain = 0
KANS 040000Z 11008KT 36/12 A2998 RMK A01 T03610119  RH  024%=      5-min Rain = 0
KANS 040005Z 14007KT 36/12 A2998 RMK A01 T03590122  RH  025%=      5-min Rain = 0
KANS 040010Z 11007KT 36/12 A2998 RMK A01 T03570119  RH  025%=      5-min Rain = 0
KANS 040015Z 11007KT 36/12 A2998 RMK A01 T03550117  RH  025%=      5-min Rain = 0
KANS 040020Z 14009G14KT 36/12 A2998 RMK A01 T03560118  RH  025%=      5-min Rain = 0
KANS 040025Z 14007KT 36/12 A2998 RMK A01 T03570120  RH  025%=      5-min Rain = 0
KANS 040030Z 15008KT 36/12 A2998 RMK A01 T03580119  RH  025%=      5-min Rain = 0
KANS 040035Z 14007KT 35/12 A2998 RMK A01 T03540118  RH  025%=      5-min Rain = 0
KANS 040040Z 12008G14KT 35/12 A2998 RMK A01 T03500118  RH  026%=      5-min Rain = 0
KANS 040045Z 13009KT 35/12 A2999 RMK A01 T03470116  RH  025%=      5-min Rain = 0
KANS 040050Z 12007KT 35/12 A2999 RMK A01 T03460116  RH  026%=      5-min Rain = 0
KANS 040055Z 12006KT 35/12 A2999 RMK A01 T03470118  RH  026%=      5-min Rain = 0
KANS 040100Z 12008KT 35/11 A2999 RMK A01 T03470114  RH  025%=      5-min Rain = 0
KANS 040105Z 12007G12KT 35/12 A2999 RMK A01 T03470115  RH  025%=      5-min Rain = 0
KANS 040110Z 13007KT 35/12 A2999 RMK A01 T03480116  RH  025%=      5-min Rain = 0
KANS 040115Z 13009KT 35/12 A2999 RMK A01 T03470117  RH  026%=      5-min Rain = 0
KANS 040120Z 13009KT 35/12 A2999 RMK A01 T03450117  RH  026%=      5-min Rain = 0
KANS 040125Z 13009KT 34/12 A2999 RMK A01 T03420117  RH  026%=      5-min Rain = 0
KANS 040130Z 13008G13KT 34/12 A30 RMK A01 T03410119  RH  027%=      5-min Rain = 0
KANS 040135Z 13010KT 34/12 A30 RMK A01 T03400118  RH  027%=      5-min Rain = 0
KANS 040140Z 13009KT 34/12 A30 RMK A01 T03380116  RH  027%=      5-min Rain = 0
KANS 040145Z 13007KT 34/12 A30 RMK A01 T03360115  RH  027%=      5-min Rain = 0
KANS 040150Z 13007G12KT 34/11 A30 RMK A01 T03350113  RH  027%=      5-min Rain = 0
KANS 040155Z 13006KT 33/11 A30 RMK A01 T03320114  RH  027%=      5-min Rain = 0
KANS 040200Z 12006KT 33/11 A30 RMK A01 T03300113  RH  028%=      5-min Rain = 0
KANS 040205Z 12005KT 33/12 A3001 RMK A01 T03270115  RH  028%=      5-min Rain = 0
KANS 040210Z 13005KT 32/12 A3001 RMK A01 T03240116  RH  029%=      5-min Rain = 0
KANS 040215Z 13005KT 32/12 A3001 RMK A01 T03210116  RH  029%=      5-min Rain = 0
KANS 040220Z 12005KT 32/12 A3001 RMK A01 T03190116  RH  030%=      5-min Rain = 0
KANS 040225Z 12005KT 32/12 A3001 RMK A01 T03160119  RH  031%=      5-min Rain = 0
KANS 040230Z 12005KT 31/12 A3001 RMK A01 T03140120  RH  032%=      5-min Rain = 0
KANS 040235Z 12005KT 31/12 A3001 RMK A01 T03110121  RH  032%=      5-min Rain = 0
KANS 040240Z 12005KT 31/12 A3001 RMK A01 T03080122  RH  033%=      5-min Rain = 0
KANS 040245Z 12006KT 31/12 A3002 RMK A01 T03060123  RH  034%=      5-min Rain = 0
KANS 040250Z 12005KT 30/12 A3002 RMK A01 T03040123  RH  034%=      5-min Rain = 0
KANS 040255Z 12006KT 30/12 A3002 RMK A01 T03030123  RH  034%=      5-min Rain = 0
KANS 040300Z 12006KT 30/12 A3002 RMK A01 T03030120  RH  034%=      5-min Rain = 0
KANS 040305Z 12006KT 30/12 A3002 RMK A01 T03040119  RH  033%=      5-min Rain = 0
KANS 040310Z 12006KT 30/12 A3003 RMK A01 T03030119  RH  033%=      5-min Rain = 0
KANS 040315Z 12006KT 30/12 A3003 RMK A01 T03020118  RH  033%=      5-min Rain = 0
KANS 040320Z 12006KT 30/12 A3003 RMK A01 T03010118  RH  034%=      5-min Rain = 0
KANS 040325Z 12006KT 30/12 A3004 RMK A01 T03000118  RH  034%=      5-min Rain = 0
KANS 040330Z 12006KT 30/12 A3004 RMK A01 T02990118  RH  034%=      5-min Rain = 0
KANS 040335Z 12006KT 30/12 A3004 RMK A01 T02980118  RH  034%=      5-min Rain = 0
KANS 040340Z 12007KT 30/12 A3004 RMK A01 T02980118  RH  034%=      5-min Rain = 0
KANS 040345Z 11006KT 30/12 A3004 RMK A01 T02970118  RH  034%=      5-min Rain = 0
KANS 040350Z 12006KT 30/12 A3004 RMK A01 T02950119  RH  035%=      5-min Rain = 0
KANS 040355Z 12005KT 29/12 A3005 RMK A01 T02930120  RH  036%=      5-min Rain = 0
KANS 040400Z 12005KT 29/12 A3005 RMK A01 T02910121  RH  036%=      5-min Rain = 0
KANS 040405Z 12004KT 29/12 A3005 RMK A01 T02890121  RH  037%=      5-min Rain = 0
KANS 040410Z 12005KT 29/12 A3005 RMK A01 T02870121  RH  037%=      5-min Rain = 0
KANS 040415Z 12005KT 29/12 A3006 RMK A01 T02850122  RH  038%=      5-min Rain = 0
KANS 040420Z 12005KT 28/12 A3006 RMK A01 T02840122  RH  038%=      5-min Rain = 0
KANS 040425Z 11005KT 28/12 A3006 RMK A01 T02830122  RH  038%=      5-min Rain = 0
KANS 040430Z 10006KT 28/12 A3007 RMK A01 T02820124  RH  039%=      5-min Rain = 0
KANS 040435Z 11005KT 28/12 A3007 RMK A01 T02800124  RH  040%=      5-min Rain = 0
KANS 040440Z 11006KT 28/12 A3007 RMK A01 T02800123  RH  039%=      5-min Rain = 0
KANS 040445Z 12007KT 28/12 A3007 RMK A01 T02800122  RH  039%=      5-min Rain = 0
KANS 040450Z 12006KT 28/12 A3007 RMK A01 T02790122  RH  039%=      5-min Rain = 0
KANS 040455Z 12005KT 28/12 A3007 RMK A01 T02780122  RH  040%=      5-min Rain = 0

Page generated in 0.0154 seconds.